createdAt,value
2022-07-25T00:03:28.549Z,26.13
2022-07-25T00:07:30.237Z,26.12
2022-07-25T00:11:31.873Z,26.12
2022-07-25T00:15:33.437Z,26.17
2022-07-25T00:19:35.102Z,26.16
2022-07-25T00:23:36.729Z,26.19
2022-07-25T00:27:38.350Z,26.17
2022-07-25T00:31:40.040Z,26.17
2022-07-25T00:35:41.722Z,26.12
2022-07-25T00:39:43.406Z,26.11
2022-07-25T00:43:45.770Z,25.98
2022-07-25T00:47:47.349Z,25.96
2022-07-25T00:51:49.972Z,25.93
2022-07-25T00:55:52.111Z,25.78
2022-07-25T00:59:53.749Z,25.63
2022-07-25T01:03:55.439Z,25.57
2022-07-25T01:07:58.184Z,25.64
2022-07-25T01:11:59.805Z,25.60
2022-07-25T01:16:01.624Z,25.59
2022-07-25T01:20:03.632Z,25.57
2022-07-25T01:24:06.202Z,25.56
2022-07-25T01:28:08.014Z,25.59
2022-07-25T01:32:09.598Z,25.57
2022-07-25T01:36:11.360Z,25.56
2022-07-25T01:40:13.835Z,25.49
2022-07-25T01:44:17.216Z,25.45
2022-07-25T01:48:18.786Z,25.41
2022-07-25T01:52:21.670Z,25.38
2022-07-25T01:56:23.277Z,25.35
2022-07-25T02:00:25.482Z,25.17
2022-07-25T02:04:27.142Z,25.07
2022-07-25T02:08:29.892Z,25.04
2022-07-25T02:12:31.883Z,25.05
2022-07-25T02:16:33.620Z,25.01
2022-07-25T02:20:35.257Z,24.98
2022-07-25T02:24:37.188Z,24.97
2022-07-25T02:28:39.494Z,24.93
2022-07-25T02:32:41.127Z,24.90
2022-07-25T02:36:42.952Z,24.86
2022-07-25T02:40:44.509Z,24.82
2022-07-25T02:44:46.169Z,24.86
2022-07-25T02:48:47.833Z,24.87
2022-07-25T02:52:49.468Z,24.89
2022-07-25T02:56:51.062Z,24.87
2022-07-25T03:00:52.725Z,24.84
2022-07-25T03:04:54.356Z,24.82
2022-07-25T03:08:56.017Z,24.74
2022-07-25T03:12:57.587Z,24.66
2022-07-25T03:16:59.256Z,24.59
2022-07-25T03:21:01.237Z,24.56
2022-07-25T03:25:03.123Z,24.53
2022-07-25T03:29:04.799Z,24.49
2022-07-25T03:33:06.408Z,24.42
2022-07-25T03:37:07.971Z,24.37
2022-07-25T03:41:09.605Z,24.36
2022-07-25T03:45:11.568Z,24.39
2022-07-25T03:49:13.241Z,24.39
2022-07-25T03:53:14.896Z,24.39
2022-07-25T03:57:16.491Z,24.41
2022-07-25T04:01:18.074Z,24.37
2022-07-25T04:05:20.942Z,24.36
2022-07-25T04:09:22.519Z,24.37
2022-07-25T04:13:24.114Z,24.41
2022-07-25T04:17:25.870Z,24.42
2022-07-25T04:21:27.601Z,24.41
2022-07-25T04:25:29.161Z,24.41
2022-07-25T04:29:30.766Z,24.34
2022-07-25T04:33:32.366Z,24.26
2022-07-25T04:37:36.021Z,24.29
2022-07-25T04:41:37.611Z,24.29
2022-07-25T04:45:39.694Z,24.26
2022-07-25T04:49:41.308Z,24.23
2022-07-25T04:53:42.923Z,24.19
2022-07-25T04:57:44.464Z,24.21
2022-07-25T05:01:46.159Z,24.24
2022-07-25T05:05:47.807Z,24.21
2022-07-25T05:09:49.453Z,24.19
2022-07-25T05:13:51.006Z,24.23
2022-07-25T05:17:52.642Z,24.19
2022-07-25T05:21:54.240Z,24.24
2022-07-25T05:25:55.862Z,24.26
2022-07-25T05:29:57.527Z,24.29
2022-07-25T05:33:59.214Z,24.27
2022-07-25T05:38:00.791Z,24.30
2022-07-25T05:42:02.322Z,24.34
2022-07-25T05:46:05.374Z,24.34
2022-07-25T05:50:07.576Z,24.39
2022-07-25T05:54:09.638Z,24.45
2022-07-25T05:58:11.465Z,24.51
2022-07-25T06:02:13.119Z,24.55
2022-07-25T06:06:14.737Z,24.60
2022-07-25T06:10:16.452Z,24.60
2022-07-25T06:14:18.038Z,24.60
2022-07-25T06:18:19.742Z,24.63
2022-07-25T06:22:21.341Z,24.71
2022-07-25T06:26:24.695Z,24.80
2022-07-25T06:30:26.738Z,24.90
2022-07-25T06:34:28.903Z,25.01
2022-07-25T06:38:30.716Z,25.07
2022-07-25T06:42:33.354Z,25.08
2022-07-25T06:46:35.040Z,25.12
2022-07-25T06:50:36.746Z,25.17
2022-07-25T06:54:38.626Z,25.27
2022-07-25T06:58:40.445Z,25.39
2022-07-25T07:02:58.194Z,25.45
2022-07-25T07:07:00.094Z,25.54
2022-07-25T07:11:01.688Z,25.69
2022-07-25T07:15:03.549Z,25.81
2022-07-25T07:19:05.500Z,25.89
2022-07-25T07:23:07.431Z,26.00
2022-07-25T07:27:10.252Z,26.13
2022-07-25T07:31:16.982Z,26.23
2022-07-25T07:35:19.889Z,26.31
2022-07-25T07:39:21.522Z,26.41
2022-07-25T07:43:29.064Z,26.54
2022-07-25T07:47:31.425Z,26.65
2022-07-25T07:51:32.990Z,26.75
2022-07-25T07:55:48.720Z,26.91
2022-07-25T07:59:50.345Z,27.06
2022-07-25T08:03:51.933Z,27.20
2022-07-25T08:07:54.183Z,27.33
2022-07-25T08:11:55.817Z,27.48
2022-07-25T08:15:59.119Z,27.62
2022-07-25T08:20:14.735Z,27.74
2022-07-25T08:24:22.416Z,27.90
2022-07-25T08:28:25.045Z,28.01
2022-07-25T08:32:29.857Z,28.17
2022-07-25T08:36:34.830Z,28.33
2022-07-25T08:40:36.754Z,28.45
2022-07-25T08:44:41.254Z,28.58
2022-07-25T08:48:44.584Z,28.73
2022-07-25T08:52:48.235Z,28.87
2022-07-25T08:56:49.911Z,28.97
2022-07-25T09:00:51.595Z,29.12
2022-07-25T09:04:55.869Z,29.26
2022-07-25T09:09:00.306Z,29.39
2022-07-25T09:13:04.851Z,29.47
2022-07-25T09:17:07.095Z,29.58
2022-07-25T09:21:24.295Z,29.70
2022-07-25T09:25:31.128Z,29.85
2022-07-25T09:29:34.264Z,30.01
2022-07-25T09:33:48.832Z,30.16
2022-07-25T09:37:50.419Z,30.34
2022-07-25T09:41:52.063Z,30.45
2022-07-25T09:45:53.763Z,30.59
2022-07-25T09:49:55.889Z,30.76
2022-07-25T09:53:57.548Z,31.04
2022-07-25T09:57:59.208Z,31.35
2022-07-25T10:02:23.234Z,31.65
2022-07-25T10:06:35.977Z,31.99
2022-07-25T10:10:40.090Z,32.25
2022-07-25T10:14:42.028Z,32.40
2022-07-25T10:18:54.830Z,32.51
2022-07-25T10:22:57.573Z,32.53
2022-07-25T10:27:07.860Z,32.53
2022-07-25T10:31:33.841Z,32.49
2022-07-25T10:35:35.595Z,32.40
2022-07-25T10:39:39.400Z,32.34
2022-07-25T10:43:43.639Z,32.47
2022-07-25T10:47:55.710Z,32.49
2022-07-25T10:52:01.036Z,32.54
2022-07-25T10:56:08.498Z,32.50
2022-07-25T11:00:10.716Z,32.47
2022-07-25T11:04:15.811Z,32.61
2022-07-25T11:08:24.662Z,32.76
2022-07-25T11:12:26.917Z,33.03
2022-07-25T11:16:29.648Z,33.22
2022-07-25T11:20:31.266Z,33.24
2022-07-25T11:24:42.901Z,33.38
2022-07-25T11:28:47.736Z,33.34
2022-07-25T11:32:56.096Z,33.22
2022-07-25T11:36:59.720Z,33.29
2022-07-25T11:41:01.666Z,33.52
2022-07-25T11:45:03.499Z,33.55
2022-07-25T11:49:06.642Z,33.49
2022-07-25T11:53:14.448Z,33.79
2022-07-25T11:57:21.590Z,34.03
2022-07-25T12:01:24.720Z,34.06
2022-07-25T12:05:33.335Z,34.11
2022-07-25T12:09:34.953Z,34.30
2022-07-25T12:13:37.117Z,34.36
2022-07-25T12:17:38.845Z,34.43
2022-07-25T12:21:40.516Z,34.46
2022-07-25T12:25:45.303Z,34.91
2022-07-25T12:29:46.895Z,34.84
2022-07-25T12:33:49.319Z,34.78
2022-07-25T12:37:52.076Z,34.76
2022-07-25T12:41:54.247Z,35.28
2022-07-25T12:45:55.909Z,35.27
2022-07-25T12:49:57.612Z,35.09
2022-07-25T12:53:59.231Z,35.03
2022-07-25T12:58:01.128Z,35.03
2022-07-25T13:02:03.023Z,35.10
2022-07-25T13:06:05.067Z,35.06
2022-07-25T13:10:07.668Z,34.76
2022-07-25T13:14:09.506Z,34.61
2022-07-25T13:18:11.335Z,34.61
2022-07-25T13:22:13.049Z,34.69
2022-07-25T13:26:14.915Z,34.69
2022-07-25T13:30:16.578Z,34.60
2022-07-25T13:34:18.709Z,34.45
2022-07-25T13:38:20.485Z,34.26
2022-07-25T13:42:22.372Z,34.06
2022-07-25T13:46:24.540Z,33.89
2022-07-25T13:50:26.197Z,33.71
2022-07-25T13:54:27.780Z,33.50
2022-07-25T13:58:29.660Z,33.38
2022-07-25T14:02:31.750Z,33.31
2022-07-25T14:06:34.133Z,33.94
2022-07-25T14:10:35.797Z,33.92
2022-07-25T14:14:37.533Z,34.00
2022-07-25T14:18:39.133Z,34.01
2022-07-25T14:22:42.130Z,34.26
2022-07-25T14:26:43.702Z,34.45
2022-07-25T14:30:45.361Z,34.69
2022-07-25T14:34:47.004Z,34.80
2022-07-25T14:38:48.902Z,34.98
2022-07-25T14:42:50.522Z,34.98
2022-07-25T14:46:52.663Z,35.37
2022-07-25T14:50:54.719Z,35.76
2022-07-25T14:54:56.286Z,35.96
2022-07-25T14:58:58.135Z,35.87
2022-07-25T15:02:59.740Z,36.19
2022-07-25T15:07:01.385Z,36.60
2022-07-25T15:11:02.983Z,36.68
2022-07-25T15:15:05.312Z,36.79
2022-07-25T15:19:18.014Z,36.96
2022-07-25T15:23:21.104Z,36.99
2022-07-25T15:27:22.924Z,37.06
2022-07-25T15:31:26.410Z,37.28
2022-07-25T15:35:28.170Z,37.11
2022-07-25T15:39:29.982Z,36.72
2022-07-25T15:43:33.220Z,36.79
2022-07-25T15:47:34.894Z,36.59
2022-07-25T15:51:36.502Z,36.64
2022-07-25T15:55:39.751Z,36.35
2022-07-25T15:59:41.323Z,35.92
2022-07-25T16:03:43.337Z,35.89
2022-07-25T16:07:45.067Z,35.40
2022-07-25T16:11:46.688Z,35.83
2022-07-25T16:15:48.354Z,36.22
2022-07-25T16:19:49.999Z,36.25
2022-07-25T16:23:51.571Z,35.68
2022-07-25T16:27:54.048Z,35.58
2022-07-25T16:31:56.911Z,35.74
2022-07-25T16:35:58.603Z,35.25
2022-07-25T16:40:00.177Z,35.36
2022-07-25T16:44:01.778Z,34.93
2022-07-25T16:48:06.193Z,34.34
2022-07-25T16:52:07.812Z,33.96
2022-07-25T16:56:09.422Z,33.45
2022-07-25T17:00:11.608Z,32.99
2022-07-25T17:04:13.225Z,32.81
2022-07-25T17:08:14.860Z,32.72
2022-07-25T17:12:17.427Z,32.56
2022-07-25T17:16:19.305Z,32.14
2022-07-25T17:20:21.150Z,32.03
2022-07-25T17:24:22.759Z,32.03
2022-07-25T17:28:24.473Z,32.03
2022-07-25T17:32:29.741Z,31.92
2022-07-25T17:36:31.902Z,31.82
2022-07-25T17:40:34.101Z,31.64
2022-07-25T17:44:35.829Z,31.32
2022-07-25T17:48:37.564Z,31.12
2022-07-25T17:52:39.266Z,31.03
2022-07-25T17:56:40.916Z,30.86
2022-07-25T18:00:42.475Z,30.85
2022-07-25T18:04:44.311Z,30.82
2022-07-25T18:08:46.142Z,30.70
2022-07-25T18:12:48.364Z,30.61
2022-07-25T18:16:50.032Z,30.51
2022-07-25T18:20:51.697Z,30.32
2022-07-25T18:24:53.314Z,30.16
2022-07-25T18:28:55.187Z,30.04
2022-07-25T18:32:56.949Z,30.03
2022-07-25T18:36:58.824Z,30.04
2022-07-25T18:41:26.378Z,30.01
2022-07-25T18:45:22.187Z,29.88
2022-07-25T18:49:27.096Z,29.81
2022-07-25T18:53:28.699Z,29.74
2022-07-25T18:57:30.736Z,29.63
2022-07-25T19:01:32.433Z,29.54
2022-07-25T19:05:34.172Z,29.45
2022-07-25T19:09:36.056Z,29.32
2022-07-25T19:13:49.579Z,29.15
2022-07-25T19:17:51.893Z,29.12
2022-07-25T19:21:53.667Z,29.03
2022-07-25T19:25:55.405Z,28.89
2022-07-25T19:29:57.153Z,28.83
2022-07-25T19:33:58.821Z,28.73
2022-07-25T19:38:00.407Z,28.62
2022-07-25T19:42:02.905Z,28.52
2022-07-25T19:46:04.572Z,28.46
2022-07-25T19:50:06.956Z,28.36
2022-07-25T19:54:08.932Z,28.28
2022-07-25T19:58:10.840Z,28.28
2022-07-25T20:02:13.084Z,28.20
2022-07-25T20:06:14.891Z,28.09
2022-07-25T20:10:18.067Z,27.99
2022-07-25T20:14:19.894Z,27.95
2022-07-25T20:18:21.499Z,27.77
2022-07-25T20:22:23.378Z,27.69
2022-07-25T20:26:25.125Z,27.59
2022-07-25T20:30:29.296Z,27.49
2022-07-25T20:34:34.621Z,27.42
2022-07-25T20:38:36.542Z,27.40
2022-07-25T20:42:38.639Z,27.38
2022-07-25T20:46:40.413Z,27.31
2022-07-25T20:50:42.789Z,27.28
2022-07-25T20:54:44.472Z,27.27
2022-07-25T20:58:46.081Z,27.25
2022-07-25T21:02:47.794Z,27.18
2022-07-25T21:06:49.545Z,27.09
2022-07-25T21:10:51.436Z,27.02
2022-07-25T21:14:53.375Z,26.94
2022-07-25T21:18:57.050Z,26.88
2022-07-25T21:22:58.796Z,26.93
2022-07-25T21:27:00.447Z,26.91
2022-07-25T21:31:02.054Z,26.90
2022-07-25T21:35:05.469Z,26.93
2022-07-25T21:39:07.584Z,26.94
2022-07-25T21:43:12.920Z,26.94
2022-07-25T21:47:14.954Z,26.90
2022-07-25T21:51:19.093Z,26.86
2022-07-25T21:55:24.851Z,26.73
2022-07-25T21:59:26.430Z,26.66
2022-07-25T22:03:28.162Z,26.65
2022-07-25T22:07:29.789Z,26.64
2022-07-25T22:11:42.358Z,26.59
2022-07-25T22:15:48.378Z,26.64
2022-07-25T22:19:49.976Z,26.66
2022-07-25T22:23:51.588Z,26.72
2022-07-25T22:27:53.398Z,26.66
2022-07-25T22:31:55.124Z,26.72
2022-07-25T22:35:57.569Z,26.76
2022-07-25T22:40:01.123Z,26.73
2022-07-25T22:44:03.497Z,26.76
2022-07-25T22:48:05.237Z,26.76
2022-07-25T22:52:07.832Z,26.75
2022-07-25T22:56:09.544Z,26.76
2022-07-25T23:00:12.212Z,26.69
2022-07-25T23:04:14.020Z,26.72
2022-07-25T23:08:15.698Z,26.60
2022-07-25T23:12:18.582Z,26.56
2022-07-25T23:16:20.409Z,26.53
2022-07-25T23:20:22.163Z,26.56
2022-07-25T23:24:23.807Z,26.56
2022-07-25T23:28:25.381Z,26.57
2022-07-25T23:32:26.946Z,26.51
2022-07-25T23:36:28.494Z,26.53
2022-07-25T23:40:30.358Z,26.49
2022-07-25T23:44:32.053Z,26.41
2022-07-25T23:48:34.100Z,26.39
2022-07-25T23:52:35.750Z,26.41
2022-07-25T23:56:37.414Z,26.39
